Time;durP1;ratioP1;P1;durP2;ratioP2;P2;SDS_P1;SDS_P2;PMS_P1;PMS_P2;Temp;Humidity;BMP_temperature;BMP_pressure;BME280_temperature;BME280_humidity;BME280_pressure;Samples;Min_cycle;Max_cycle;Signal;HPM_P1;HPM_P2
2022/07/17 00:00:03;;;;;;;4.30;3.05;;;17.10;77.80;;;;;;5093006;28;20473;-73
2022/07/17 00:02:28;;;;;;;4.38;2.63;;;17.10;78.00;;;;;;5099471;28;20076;-72
2022/07/17 00:04:54;;;;;;;6.32;3.00;;;17.00;78.10;;;;;;5095261;28;20036;-71
2022/07/17 00:07:20;;;;;;;5.13;2.95;;;17.00;78.20;;;;;;5092191;28;20024;-73
2022/07/17 00:09:46;;;;;;;4.72;2.95;;;17.00;78.40;;;;;;5091176;28;20028;-72
2022/07/17 00:12:11;;;;;;;5.05;3.25;;;16.90;78.50;;;;;;5089092;28;20032;-71
2022/07/17 00:14:37;;;;;;;3.78;2.97;;;16.90;78.80;;;;;;5096132;28;20044;-72
2022/07/17 00:17:05;;;;;;;5.80;3.33;;;16.90;79.00;;;;;;5094789;28;20066;-74
2022/07/17 00:19:31;;;;;;;3.28;2.85;;;16.80;79.10;;;;;;5095520;28;20089;-72
2022/07/17 00:21:57;;;;;;;4.35;3.13;;;16.80;79.20;;;;;;5092877;28;20077;-71
2022/07/17 00:24:23;;;;;;;6.43;3.40;;;16.80;80.00;;;;;;5088805;28;20115;-71
2022/07/17 00:26:52;;;;;;;4.00;2.95;;;16.80;79.60;;;;;;5080184;28;20031;-71
2022/07/17 00:29:19;;;;;;;3.53;2.58;;;16.70;79.70;;;;;;5084699;28;20151;-71
2022/07/17 00:31:45;;;;;;;3.47;2.60;;;16.60;79.90;;;;;;5092990;28;20099;-70
2022/07/17 00:34:11;;;;;;;5.97;2.75;;;16.60;80.20;;;;;;5086222;28;20017;-71
2022/07/17 00:36:37;;;;;;;2.75;2.47;;;16.60;80.50;;;;;;5088449;28;20457;-71
2022/07/17 00:39:03;;;;;;;3.30;2.72;;;16.50;80.70;;;;;;5091149;28;20051;-72
2022/07/17 00:41:29;;;;;;;4.28;3.00;;;16.60;80.80;;;;;;5095128;28;20035;-72
2022/07/17 00:44:02;;;;;;;5.47;3.05;;;16.50;80.90;;;;;;5093673;28;20453;-72
2022/07/17 00:46:28;;;;;;;5.25;3.15;;;16.50;81.00;;;;;;5098325;28;20028;-72
2022/07/17 00:48:53;;;;;;;5.88;3.40;;;16.50;81.10;;;;;;5082364;28;20032;-72
2022/07/17 00:51:19;;;;;;;4.75;2.63;;;16.40;81.20;;;;;;5081410;28;20669;-72
2022/07/17 00:53:45;;;;;;;3.42;2.90;;;16.40;81.40;;;;;;5089685;28;20069;-72
2022/07/17 00:56:12;;;;;;;4.75;3.13;;;16.40;81.60;;;;;;5082279;28;20027;-72
2022/07/17 00:58:38;;;;;;;3.17;2.88;;;16.40;82.20;;;;;;5094609;28;20028;-72
2022/07/17 01:01:08;;;;;;;4.38;3.17;;;16.30;82.30;;;;;;5092087;28;20024;-72
2022/07/17 01:03:34;;;;;;;3.03;2.58;;;16.20;82.50;;;;;;5091394;28;20035;-71
2022/07/17 01:05:59;;;;;;;5.35;2.95;;;16.20;82.80;;;;;;5090907;28;20060;-73
2022/07/17 01:08:26;;;;;;;5.80;2.90;;;16.10;83.30;;;;;;5088647;28;20041;-72
2022/07/17 01:10:51;;;;;;;5.90;3.08;;;16.00;83.60;;;;;;5088338;28;20035;-72
2022/07/17 01:13:18;;;;;;;4.25;2.58;;;16.00;83.90;;;;;;5085412;28;20491;-72
2022/07/17 01:15:44;;;;;;;3.90;3.33;;;16.00;84.70;;;;;;5095591;28;20032;-72
2022/07/17 01:18:12;;;;;;;3.95;2.58;;;15.90;84.30;;;;;;5092146;28;20044;-72
2022/07/17 01:20:40;;;;;;;4.22;3.00;;;15.90;84.50;;;;;;5099037;28;20055;-71
2022/07/17 01:23:05;;;;;;;3.90;2.78;;;15.90;84.80;;;;;;5076614;28;20111;-72
2022/07/17 01:25:31;;;;;;;3.55;2.75;;;15.80;85.30;;;;;;5088321;28;20107;-71
2022/07/17 01:27:57;;;;;;;3.83;2.85;;;15.80;85.60;;;;;;5084662;28;20410;-71
2022/07/17 01:30:23;;;;;;;4.65;3.13;;;15.70;86.00;;;;;;5075303;28;20035;-71
2022/07/17 01:32:49;;;;;;;3.40;2.80;;;15.60;86.30;;;;;;5083588;28;20389;-72
2022/07/17 01:35:15;;;;;;;4.20;3.03;;;15.60;86.60;;;;;;5077252;28;20020;-72
2022/07/17 01:37:43;;;;;;;3.85;2.92;;;15.50;86.70;;;;;;5084355;28;20454;-72
2022/07/17 01:40:12;;;;;;;3.03;2.72;;;15.50;86.90;;;;;;5092813;28;20028;-72
2022/07/17 01:42:39;;;;;;;4.20;3.08;;;15.50;87.30;;;;;;5097321;28;20032;-71
2022/07/17 01:45:05;;;;;;;3.83;2.80;;;15.40;87.60;;;;;;5091422;28;20039;-73
2022/07/17 01:47:31;;;;;;;3.72;2.63;;;15.40;87.90;;;;;;5087779;28;20059;-72
2022/07/17 01:49:57;;;;;;;3.85;2.95;;;15.40;98.40;;;;;;5089463;28;20101;-72
2022/07/17 01:52:24;;;;;;;6.00;3.30;;;;;;;;;;5098295;28;20035;-72
2022/07/17 01:54:50;;;;;;;4.57;3.33;;;;;;;;;;5090820;28;20056;-72
2022/07/17 01:57:16;;;;;;;3.83;2.97;;;;;;;;;;5094442;28;20040;-72
2022/07/17 01:59:42;;;;;;;3.65;2.95;;;;;;;;;;5098627;28;20047;-72
2022/07/17 02:02:09;;;;;;;3.40;3.08;;;;;;;;;;5098062;28;20030;-72
2022/07/17 02:04:36;;;;;;;6.15;3.63;;;;;;;;;;5099585;28;20047;-72
2022/07/17 02:07:02;;;;;;;5.97;3.65;;;;;;;;;;5096580;28;20522;-73
2022/07/17 02:09:28;;;;;;;4.03;3.35;;;;;;;;;;5094404;28;20028;-71
2022/07/17 02:11:54;;;;;;;6.80;3.83;;;;;;;;;;5090208;28;20108;-72
2022/07/17 02:14:20;;;;;;;10.02;3.72;;;;;;;;;;5097087;28;20381;-72
2022/07/17 02:16:46;;;;;;;5.63;3.80;;;;;;;;;;5090262;28;20047;-72
2022/07/17 02:19:12;;;;;;;4.78;3.50;;;;;;;;;;5084840;28;20427;-72
2022/07/17 02:21:38;;;;;;;7.15;3.92;;;;;;;;;;5085840;28;20028;-71
2022/07/17 02:24:05;;;;;;;7.82;3.63;;;;;;;;;;5081661;28;20020;-72
2022/07/17 02:26:31;;;;;;;5.82;3.70;;;;;;;;;;5089467;28;20025;-72
2022/07/17 02:28:57;;;;;;;7.07;3.90;;;;;;;;;;5086665;28;20070;-72
2022/07/17 02:31:23;;;;;;;5.68;3.95;;;;;;;;;;5090522;28;20032;-71
2022/07/17 02:33:49;;;;;;;6.65;3.67;;;;;;;;;;5116432;27;20027;-72
2022/07/17 02:36:15;;;;;;;5.57;3.80;;;;;;;;;;5093747;28;20397;-70
2022/07/17 02:38:41;;;;;;;6.10;4.13;;;;;;;;;;5099951;28;20028;-71
2022/07/17 02:41:08;;;;;;;6.15;3.90;;;;;;;;;;5093270;28;20032;-70
2022/07/17 02:43:34;;;;;;;5.53;3.60;;;;;;;;;;5097884;28;20035;-71
2022/07/17 02:46:00;;;;;;;5.53;3.55;;;15.00;92.50;;;;;;5084275;28;20142;-72
2022/07/17 02:48:26;;;;;;;4.85;3.80;;;14.90;93.10;;;;;;5088029;28;20531;-71
2022/07/17 02:50:52;;;;;;;5.13;3.90;;;14.90;93.30;;;;;;5093078;28;20102;-71
2022/07/17 02:53:17;;;;;;;4.88;3.75;;;14.80;93.50;;;;;;5095017;28;20483;-72
2022/07/17 02:55:43;;;;;;;6.20;3.53;;;14.80;93.80;;;;;;5090599;28;20031;-72
2022/07/17 02:58:09;;;;;;;5.18;3.63;;;14.70;94.00;;;;;;5097429;28;20032;-72
2022/07/17 03:00:34;;;;;;;12.15;3.70;;;14.70;94.20;;;;;;5097091;28;20035;-71
2022/07/17 03:03:00;;;;;;;5.95;3.90;;;14.60;94.40;;;;;;5096435;28;20141;-72
2022/07/17 03:05:26;;;;;;;8.18;4.07;;;14.60;94.60;;;;;;5089410;28;20028;-72
2022/07/17 03:07:51;;;;;;;7.00;3.80;;;14.50;94.90;;;;;;5089161;28;20393;-72
2022/07/17 03:10:17;;;;;;;5.60;3.80;;;14.40;95.30;;;;;;5094329;28;20019;-72
2022/07/17 03:12:43;;;;;;;6.25;3.50;;;14.40;95.40;;;;;;5085910;28;20027;-72
2022/07/17 03:15:09;;;;;;;4.05;3.42;;;14.40;95.60;;;;;;5088920;28;20048;-73
2022/07/17 03:17:35;;;;;;;6.70;3.50;;;14.40;95.80;;;;;;5083242;28;20417;-72
2022/07/17 03:20:01;;;;;;;5.88;4.22;;;14.40;96.10;;;;;;5067410;28;20036;-72
2022/07/17 03:22:26;;;;;;;7.82;3.80;;;14.40;96.10;;;;;;5063733;28;20028;-72
2022/07/17 03:24:52;;;;;;;6.15;3.40;;;14.40;96.20;;;;;;5075207;28;20385;-72
2022/07/17 03:27:18;;;;;;;7.22;3.30;;;14.40;96.30;;;;;;5069992;28;20440;-72
2022/07/17 03:29:44;;;;;;;4.40;3.30;;;14.40;96.50;;;;;;5074221;28;20033;-72
2022/07/17 03:32:10;;;;;;;5.20;3.70;;;14.30;96.70;;;;;;5076214;28;20071;-69
2022/07/17 03:34:38;;;;;;;8.18;3.67;;;14.30;96.90;;;;;;5077007;28;20421;-72
2022/07/17 03:37:04;;;;;;;6.28;3.35;;;14.30;97.20;;;;;;5067921;28;20539;-72
2022/07/17 03:39:30;;;;;;;6.32;3.63;;;14.30;97.40;;;;;;5065750;28;20033;-71
2022/07/17 03:41:56;;;;;;;10.90;3.80;;;14.30;97.60;;;;;;5063918;28;20033;-71
2022/07/17 03:44:22;;;;;;;5.97;4.07;;;14.20;97.90;;;;;;5063888;28;20040;-70
2022/07/17 03:46:48;;;;;;;8.05;3.60;;;14.20;98.10;;;;;;5078562;28;20107;-70
2022/07/17 03:49:13;;;;;;;4.35;3.35;;;14.20;98.30;;;;;;5071774;28;20557;-70
2022/07/17 03:51:39;;;;;;;5.18;3.63;;;14.20;98.40;;;;;;5067811;28;20036;-71
2022/07/17 03:54:05;;;;;;;7.45;3.63;;;14.20;98.60;;;;;;5068166;28;20024;-73
2022/07/17 03:56:30;;;;;;;6.40;3.83;;;14.20;98.80;;;;;;5055356;28;20476;-72
2022/07/17 03:58:56;;;;;;;7.10;3.50;;;14.10;98.90;;;;;;5069201;28;20028;-73
2022/07/17 04:01:22;;;;;;;6.07;3.58;;;14.10;99.20;;;;;;5062182;28;20933;-72
2022/07/17 04:03:47;;;;;;;3.88;3.35;;;14.10;99.60;;;;;;5072570;28;20029;-72
2022/07/17 04:06:13;;;;;;;4.13;3.42;;;14.00;99.80;;;;;;5068722;28;20107;-71
2022/07/17 04:08:39;;;;;;;5.85;3.88;;;14.00;99.90;;;;;;5077876;28;20031;-72
2022/07/17 04:11:05;;;;;;;5.03;3.80;;;14.00;99.90;;;;;;5072319;28;20063;-73
2022/07/17 04:13:30;;;;;;;6.35;3.60;;;13.90;99.90;;;;;;5073382;28;20471;-72
2022/07/17 04:15:56;;;;;;;4.70;3.60;;;13.90;99.90;;;;;;5070506;28;20054;-72
2022/07/17 04:18:25;;;;;;;4.45;3.58;;;13.90;99.90;;;;;;5065357;28;20037;-72
2022/07/17 04:20:53;;;;;;;4.28;3.78;;;13.90;99.90;;;;;;5064053;28;20044;-71
2022/07/17 04:23:18;;;;;;;6.05;4.30;;;13.90;99.90;;;;;;5058856;28;20032;-72
2022/07/17 04:25:44;;;;;;;6.13;4.22;;;13.90;99.90;;;;;;5069555;28;20039;-73
2022/07/17 04:28:11;;;;;;;6.72;4.07;;;14.00;99.90;;;;;;5063095;28;20037;-73
2022/07/17 04:30:36;;;;;;;4.90;3.83;;;14.00;99.90;;;;;;5075255;28;20073;-73
2022/07/17 04:33:02;;;;;;;5.65;4.18;;;14.00;99.90;;;;;;5064572;28;20044;-72
2022/07/17 04:35:28;;;;;;;5.88;4.53;;;14.10;99.90;;;;;;5066096;28;20037;-72
2022/07/17 04:37:57;;;;;;;4.90;4.20;;;14.10;99.90;;;;;;5061412;28;20050;-72
2022/07/17 04:40:22;;;;;;;5.47;4.03;;;14.20;99.90;;;;;;5064338;28;20103;-72
2022/07/17 04:42:48;;;;;;;6.50;4.40;;;14.30;99.90;;;;;;5074803;28;20099;-72
2022/07/17 04:45:14;;;;;;;7.78;4.60;;;14.30;99.90;;;;;;5075515;28;20074;-72
2022/07/17 04:47:40;;;;;;;7.05;4.60;;;14.40;99.90;;;;;;5071613;28;20098;-71
2022/07/17 04:50:07;;;;;;;6.93;4.38;;;14.50;99.90;;;;;;5072917;28;20025;-74
2022/07/17 04:52:33;;;;;;;8.57;4.60;;;14.50;99.90;;;;;;5073098;28;20741;-71
2022/07/17 04:54:58;;;;;;;6.05;4.45;;;14.60;99.90;;;;;;5066449;28;20070;-72
2022/07/17 04:57:24;;;;;;;6.05;5.22;;;14.70;99.90;;;;;;5059783;28;20041;-72
2022/07/17 04:59:50;;;;;;;5.93;4.85;;;14.70;99.90;;;;;;5065837;28;20033;-72
2022/07/17 05:02:16;;;;;;;5.85;4.63;;;14.80;99.90;;;;;;5080150;28;20111;-72
2022/07/17 05:04:41;;;;;;;6.18;4.35;;;14.90;99.90;;;;;;5066464;28;20143;-72
2022/07/17 05:07:07;;;;;;;6.63;4.38;;;15.00;99.90;;;;;;5069514;28;20072;-74
2022/07/17 05:09:32;;;;;;;5.72;4.70;;;15.00;99.90;;;;;;5061235;28;20085;-72
2022/07/17 05:11:58;;;;;;;5.47;4.22;;;15.10;99.90;;;;;;5078252;28;20070;-72
2022/07/17 05:14:24;;;;;;;5.85;4.20;;;15.20;99.90;;;;;;5071358;28;20106;-72
2022/07/17 05:16:49;;;;;;;7.28;5.22;;;15.30;99.90;;;;;;5081101;28;20059;-71
2022/07/17 05:19:15;;;;;;;8.40;5.13;;;15.40;99.90;;;;;;5068508;28;20056;-72
2022/07/17 05:21:41;;;;;;;9.90;5.28;;;15.50;99.90;;;;;;5071809;28;20039;-72
2022/07/17 05:24:06;;;;;;;8.68;5.40;;;15.60;99.90;;;;;;5066485;28;20032;-73
2022/07/17 05:26:32;;;;;;;4.85;4.20;;;15.70;99.90;;;;;;5077166;28;20389;-72
2022/07/17 05:28:57;;;;;;;8.07;5.13;;;15.80;99.90;;;;;;5083382;28;20107;-73
2022/07/17 05:31:23;;;;;;;6.85;4.60;;;15.80;99.90;;;;;;5072350;28;20458;-71
2022/07/17 05:33:49;;;;;;;7.22;5.28;;;16.00;99.90;;;;;;5076867;28;20028;-72
2022/07/17 05:36:14;;;;;;;10.50;4.97;;;16.00;99.70;;;;;;5080394;28;20035;-72
2022/07/17 05:38:40;;;;;;;6.00;5.32;;;16.10;99.60;;;;;;5078006;28;20056;-72
2022/07/17 05:41:06;;;;;;;6.55;4.70;;;16.30;99.40;;;;;;5073181;28;20028;-73
2022/07/17 05:43:31;;;;;;;5.95;4.43;;;16.30;99.00;;;;;;5073504;28;20051;-72
2022/07/17 05:45:58;;;;;;;5.60;5.05;;;16.40;98.70;;;;;;5072856;28;20031;-72
2022/07/17 05:48:25;;;;;;;6.78;3.83;;;16.50;98.10;;;;;;5066124;28;20115;-72
2022/07/17 05:50:50;;;;;;;7.35;4.65;;;16.60;97.80;;;;;;5070459;28;20020;-72
2022/07/17 05:53:16;;;;;;;7.32;5.03;;;16.70;97.60;;;;;;5075818;28;20040;-72
2022/07/17 05:55:42;;;;;;;8.57;5.47;;;16.90;97.60;;;;;;5075222;28;20051;-72
2022/07/17 05:58:08;;;;;;;10.32;5.40;;;16.90;97.10;;;;;;5077451;28;20049;-73
2022/07/17 06:00:34;;;;;;;8.88;4.68;;;17.10;96.80;;;;;;5080407;28;20032;-72
2022/07/17 06:03:01;;;;;;;6.75;5.40;;;17.20;96.40;;;;;;5070601;28;20456;-72
2022/07/17 06:05:26;;;;;;;6.70;4.70;;;17.30;96.40;;;;;;5073289;28;20086;-72
2022/07/17 06:07:56;;;;;;;5.70;5.05;;;17.50;96.50;;;;;;5072831;28;20024;-72
2022/07/17 06:10:22;;;;;;;7.80;4.72;;;17.60;95.70;;;;;;5101169;28;20031;-72
2022/07/17 06:12:49;;;;;;;8.40;4.57;;;17.60;95.50;;;;;;5099731;28;20028;-72
2022/07/17 06:15:15;;;;;;;6.68;4.95;;;17.70;95.40;;;;;;5090534;28;20051;-72
2022/07/17 06:17:41;;;;;;;6.10;4.57;;;17.80;95.10;;;;;;5093562;28;20024;-72
2022/07/17 06:20:07;;;;;;;8.68;5.60;;;17.90;95.10;;;;;;5086018;28;20047;-73
2022/07/17 06:22:33;;;;;;;6.53;5.25;;;17.90;95.00;;;;;;5085479;28;20032;-73
2022/07/17 06:24:58;;;;;;;7.53;5.00;;;18.00;94.60;;;;;;5086016;28;20023;-72
2022/07/17 06:27:24;;;;;;;5.13;3.88;;;18.20;94.20;;;;;;5094372;28;20048;-72
2022/07/17 06:29:50;;;;;;;6.03;5.30;;;18.20;94.10;;;;;;5086745;28;20110;-72
2022/07/17 06:32:16;;;;;;;4.75;4.35;;;18.30;93.90;;;;;;5094545;28;20024;-72
2022/07/17 06:34:42;;;;;;;6.75;5.15;;;18.40;93.80;;;;;;5084496;28;20035;-72
2022/07/17 06:37:12;;;;;;;4.57;3.88;;;18.50;93.80;;;;;;5095373;28;20027;-74
2022/07/17 06:39:37;;;;;;;6.45;4.70;;;18.60;93.80;;;;;;5092525;28;20047;-78
2022/07/17 06:42:03;;;;;;;7.13;4.60;;;18.70;93.50;;;;;;5097419;28;20028;-79
2022/07/17 06:44:29;;;;;;;6.13;4.60;;;18.80;92.60;;;;;;5077288;28;20682;-79
2022/07/17 06:46:55;;;;;;;7.82;4.95;;;18.90;92.20;;;;;;5089693;28;20099;-79
2022/07/17 06:49:20;;;;;;;4.93;4.13;;;19.00;92.10;;;;;;5082699;28;20048;-79
2022/07/17 06:51:47;;;;;;;10.63;5.35;;;19.10;91.90;;;;;;5082050;28;20382;-78
2022/07/17 06:54:13;;;;;;;7.05;5.05;;;19.20;91.60;;;;;;5087535;28;20023;-77
2022/07/17 06:56:39;;;;;;;6.13;4.07;;;19.30;91.20;;;;;;5096110;28;20023;-78
2022/07/17 06:59:07;;;;;;;11.98;4.53;;;19.30;91.30;;;;;;5092246;28;20038;-78
2022/07/17 07:01:36;;;;;;;6.07;4.47;;;19.40;90.90;;;;;;5095278;28;21601;-79
2022/07/17 07:04:03;;;;;;;5.40;3.83;;;19.50;90.50;;;;;;5095962;28;20028;-79
2022/07/17 07:06:30;;;;;;;5.35;4.03;;;19.60;90.40;;;;;;5086060;28;20087;-78
2022/07/17 07:08:56;;;;;;;7.00;4.22;;;19.80;90.00;;;;;;5084723;28;20384;-78
2022/07/17 07:11:23;;;;;;;8.02;4.30;;;19.90;88.40;;;;;;5080119;28;20020;-75
2022/07/17 07:13:48;;;;;;;10.23;3.83;;;20.00;87.80;;;;;;5091634;28;20067;-74
2022/07/17 07:16:14;;;;;;;9.63;4.28;;;20.10;87.90;;;;;;5080090;28;20516;-73
2022/07/17 07:18:40;;;;;;;4.22;3.50;;;20.20;86.60;;;;;;5079769;28;20381;-72
2022/07/17 07:21:05;;;;;;;6.63;3.88;;;20.20;85.60;;;;;;5087998;28;20028;-77
2022/07/17 07:23:31;;;;;;;7.75;4.00;;;20.40;84.10;;;;;;5080692;28;20020;-76
2022/07/17 07:25:56;;;;;;;12.63;3.92;;;20.40;84.00;;;;;;5092478;28;20028;-76
2022/07/17 07:28:22;;;;;;;6.55;3.90;;;20.50;83.60;;;;;;5086091;28;20079;-76
2022/07/17 07:30:48;;;;;;;7.72;3.88;;;20.60;82.30;;;;;;5093734;28;20066;-76
2022/07/17 07:33:13;;;;;;;3.47;3.10;;;20.70;81.90;;;;;;5092321;28;20388;-73
2022/07/17 07:35:39;;;;;;;4.45;3.17;;;20.70;81.50;;;;;;5079971;28;20024;-72
2022/07/17 07:38:05;;;;;;;8.00;2.97;;;20.70;80.80;;;;;;5078950;28;20085;-76
2022/07/17 07:40:30;;;;;;;6.10;3.13;;;20.90;80.30;;;;;;5063873;28;20198;-71
2022/07/17 07:42:57;;;;;;;8.38;3.10;;;21.00;80.80;;;;;;5093991;28;20035;-74
2022/07/17 07:45:23;;;;;;;7.28;3.15;;;21.10;79.70;;;;;;5087718;28;20024;-86
2022/07/17 07:47:50;;;;;;;6.60;2.95;;;21.20;79.50;;;;;;5092932;28;20494;-76
2022/07/17 07:50:17;;;;;;;4.65;3.20;;;21.20;79.70;;;;;;5091817;28;20035;-75
2022/07/17 07:52:43;;;;;;;3.65;3.10;;;21.20;79.50;;;;;;5094211;28;20099;-75
2022/07/17 07:55:11;;;;;;;5.18;2.55;;;21.40;79.20;;;;;;5090320;28;20039;-82
2022/07/17 07:57:37;;;;;;;6.05;3.00;;;21.40;78.80;;;;;;5094960;28;20031;-79
2022/07/17 08:00:04;;;;;;;6.13;3.10;;;21.50;78.50;;;;;;5096875;28;20024;-86
2022/07/17 08:02:30;;;;;;;3.45;2.53;;;21.70;77.50;;;;;;5097406;28;20023;-75
2022/07/17 08:04:56;;;;;;;2.97;2.30;;;21.70;77.30;;;;;;5095177;28;20072;-74
2022/07/17 08:07:21;;;;;;;7.68;2.90;;;21.80;75.90;;;;;;5088704;28;20080;-74
2022/07/17 08:09:48;;;;;;;3.65;2.28;;;21.80;75.70;;;;;;5094038;28;20027;-74
2022/07/17 08:12:14;;;;;;;2.92;2.40;;;21.90;75.50;;;;;;5090523;28;20076;-75
2022/07/17 08:14:39;;;;;;;2.90;2.63;;;22.10;74.90;;;;;;5092155;28;20051;-74
2022/07/17 08:17:05;;;;;;;5.70;2.85;;;22.20;74.50;;;;;;5088635;28;20032;-75
2022/07/17 08:19:31;;;;;;;4.95;2.50;;;22.20;74.20;;;;;;5083364;28;20033;-75
2022/07/17 08:21:56;;;;;;;2.10;2.00;;;22.30;74.60;;;;;;5087023;28;20435;-75
2022/07/17 08:24:22;;;;;;;8.05;2.35;;;22.30;74.10;;;;;;5084269;28;20031;-73
2022/07/17 08:26:48;;;;;;;3.58;2.60;;;22.40;74.80;;;;;;5081327;28;20036;-74
2022/07/17 08:29:15;;;;;;;4.18;2.42;;;22.70;73.30;;;;;;5075296;28;20656;-77
2022/07/17 08:31:41;;;;;;;3.03;2.20;;;22.80;74.40;;;;;;5086619;28;20034;-73
2022/07/17 08:34:07;;;;;;;2.50;2.00;;;22.90;72.90;;;;;;5092310;28;20024;-74
2022/07/17 08:36:33;;;;;;;2.85;2.22;;;23.00;72.10;;;;;;5083930;28;20604;-75
2022/07/17 08:38:59;;;;;;;3.13;2.33;;;23.10;72.20;;;;;;5090120;28;20046;-75
2022/07/17 08:41:26;;;;;;;3.38;3.05;;;23.30;72.00;;;;;;5090389;28;20020;-75
2022/07/17 08:43:54;;;;;;;5.60;2.75;;;23.40;71.90;;;;;;5088894;28;20448;-74
2022/07/17 08:46:23;;;;;;;2.70;2.50;;;23.40;71.40;;;;;;5081564;28;20111;-74
2022/07/17 08:48:52;;;;;;;4.07;2.50;;;23.50;70.60;;;;;;5091012;28;20035;-74
2022/07/17 08:51:18;;;;;;;2.30;2.10;;;23.50;70.30;;;;;;5091487;28;20089;-75
2022/07/17 08:53:44;;;;;;;3.15;2.25;;;23.60;70.50;;;;;;5078074;28;20136;-76
2022/07/17 08:56:10;;;;;;;4.68;2.20;;;23.60;70.20;;;;;;5081841;28;20063;-77
2022/07/17 08:58:36;;;;;;;2.38;2.15;;;23.70;69.60;;;;;;5093947;28;20388;-75
2022/07/17 09:01:02;;;;;;;7.68;2.45;;;23.90;68.60;;;;;;5074578;28;20397;-75
2022/07/17 09:03:28;;;;;;;3.00;2.28;;;24.00;69.30;;;;;;5089241;28;20035;-76
2022/07/17 09:05:54;;;;;;;7.45;2.60;;;24.00;68.60;;;;;;5087017;28;20032;-74
2022/07/17 09:08:22;;;;;;;3.83;2.00;;;24.10;68.60;;;;;;5079064;28;20513;-75
2022/07/17 09:10:54;;;;;;;5.40;2.33;;;24.30;67.20;;;;;;5085201;28;20020;-74
2022/07/17 09:13:25;;;;;;;5.43;2.08;;;24.40;66.90;;;;;;5090526;28;20032;-76
2022/07/17 09:15:53;;;;;;;4.38;2.30;;;24.50;66.40;;;;;;5096944;28;20447;-72
2022/07/17 09:18:19;;;;;;;6.40;2.10;;;24.70;65.60;;;;;;5091577;28;20063;-76
2022/07/17 09:20:53;;;;;;;2.72;1.90;;;24.80;65.40;;;;;;5089158;28;20028;-76
2022/07/17 09:23:21;;;;;;;2.50;2.30;;;25.00;65.70;;;;;;5091881;28;20526;-76
2022/07/17 09:25:49;;;;;;;2.63;2.40;;;25.10;64.70;;;;;;5090419;28;20043;-77
2022/07/17 09:28:16;;;;;;;3.13;2.40;;;25.20;65.10;;;;;;5091690;28;20032;-75
2022/07/17 09:30:44;;;;;;;4.30;2.53;;;25.30;64.50;;;;;;5092995;28;20414;-74
2022/07/17 09:33:18;;;;;;;2.75;2.00;;;25.30;63.50;;;;;;5090278;28;20449;-75
2022/07/17 09:36:12;;;;;;;2.85;2.40;;;25.40;63.50;;;;;;5094959;28;20032;-74
2022/07/17 09:38:42;;;;;;;2.08;1.77;;;25.60;62.90;;;;;;5080392;28;20075;-74
2022/07/17 09:41:16;;;;;;;2.83;1.48;;;25.70;61.70;;;;;;5082036;28;20473;-73
2022/07/17 09:43:44;;;;;;;1.63;1.52;;;25.80;60.50;;;;;;5085674;28;20048;-74
2022/07/17 09:46:14;;;;;;;2.65;1.75;;;25.90;60.20;;;;;;5084136;28;20020;-73
2022/07/17 09:48:48;;;;;;;1.40;1.30;;;26.00;58.90;;;;;;5090704;28;20107;-74
2022/07/17 09:51:27;;;;;;;1.40;1.30;;;26.00;56.70;;;;;;5089631;28;20043;-78
2022/07/17 09:53:58;;;;;;;3.33;1.20;;;26.10;55.70;;;;;;5091586;28;20047;-75
2022/07/17 09:56:26;;;;;;;1.77;1.67;;;26.20;57.20;;;;;;5090562;28;20039;-76
2022/07/17 09:58:54;;;;;;;2.60;1.60;;;26.20;57.80;;;;;;5099217;28;20067;-76
2022/07/17 10:01:20;;;;;;;1.75;1.40;;;26.30;57.90;;;;;;5092860;28;20022;-74
2022/07/17 10:03:48;;;;;;;2.30;1.48;;;26.40;56.70;;;;;;5091426;28;20485;-72
2022/07/17 10:06:15;;;;;;;1.65;1.50;;;26.50;56.00;;;;;;5078665;28;20032;-75
2022/07/17 10:08:41;;;;;;;9.02;2.03;;;26.60;54.10;;;;;;5094094;28;20023;-75
2022/07/17 10:11:08;;;;;;;1.35;1.25;;;26.70;56.80;;;;;;5094458;28;20060;-73
2022/07/17 10:13:40;;;;;;;2.50;1.45;;;26.80;56.90;;;;;;5091046;28;20083;-72
2022/07/17 10:16:09;;;;;;;2.67;1.80;;;26.80;57.00;;;;;;5089451;28;20048;-72
2022/07/17 10:18:41;;;;;;;2.25;1.60;;;26.90;56.10;;;;;;5087216;28;20189;-73
2022/07/17 10:21:14;;;;;;;2.17;1.75;;;26.90;55.80;;;;;;5087295;28;20032;-74
2022/07/17 10:23:42;;;;;;;1.85;1.63;;;27.00;56.30;;;;;;5086452;28;20025;-76
2022/07/17 10:26:08;;;;;;;3.97;2.00;;;27.10;55.50;;;;;;5084039;28;20028;-73
2022/07/17 10:28:45;;;;;;;2.20;1.70;;;27.10;55.50;;;;;;5101266;28;20046;-73
2022/07/17 10:31:23;;;;;;;1.70;1.60;;;27.00;56.30;;;;;;5084280;28;20035;-75
2022/07/17 10:33:59;;;;;;;2.45;1.60;;;26.90;56.50;;;;;;5091793;28;20020;-80
2022/07/17 10:36:40;;;;;;;3.20;1.73;;;27.00;55.90;;;;;;5085066;28;20028;-77
2022/07/17 10:39:17;;;;;;;4.60;1.95;;;27.10;56.40;;;;;;5084875;28;20541;-77
2022/07/17 10:41:54;;;;;;;1.67;1.58;;;27.20;55.60;;;;;;5082299;28;20031;-76
2022/07/17 10:44:27;;;;;;;2.30;1.90;;;27.30;55.40;;;;;;5097639;28;20697;-78
2022/07/17 10:46:54;;;;;;;2.20;1.98;;;27.50;55.70;;;;;;5089604;28;20055;-71
2022/07/17 10:49:20;;;;;;;3.15;1.90;;;27.50;55.60;;;;;;5077149;28;20456;-71
2022/07/17 10:51:47;;;;;;;3.90;1.65;;;27.50;55.20;;;;;;5088854;28;20048;-71
2022/07/17 10:54:13;;;;;;;4.20;1.75;;;27.50;54.70;;;;;;5097215;28;20489;-73
2022/07/17 10:56:44;;;;;;;4.60;1.50;;;27.30;53.80;;;;;;5090721;28;20027;-71
2022/07/17 10:59:10;;;;;;;3.80;2.72;;;27.30;55.00;;;;;;5093012;28;20044;-72
2022/07/17 11:01:37;;;;;;;2.13;1.30;;;27.40;53.60;;;;;;5085987;28;20054;-72
2022/07/17 11:04:04;;;;;;;1.55;1.40;;;27.40;53.60;;;;;;5091592;28;20366;-75
2022/07/17 11:06:32;;;;;;;1.42;1.30;;;27.50;52.80;;;;;;5082027;28;20039;-72
2022/07/17 11:09:13;;;;;;;1.50;1.40;;;27.60;53.30;;;;;;5092903;28;20076;-72
2022/07/17 11:11:50;;;;;;;3.33;1.55;;;27.70;53.60;;;;;;5092036;28;20076;-72
2022/07/17 11:14:23;;;;;;;1.95;1.70;;;27.80;53.30;;;;;;5080784;28;20020;-75
2022/07/17 11:16:49;;;;;;;3.03;1.77;;;27.90;53.00;;;;;;5095472;28;20156;-71
2022/07/17 11:19:44;;;;;;;1.70;1.60;;;28.10;82.20;;;;;;5090480;28;20123;-74
2022/07/17 11:22:11;;;;;;;1.60;1.50;;;28.20;78.90;;;;;;5076007;28;20039;-71
2022/07/17 11:24:42;;;;;;;3.13;1.80;;;28.40;74.90;;;;;;5087731;28;20611;-70
2022/07/17 11:27:10;;;;;;;3.00;1.85;;;28.50;73.30;;;;;;5092238;28;20032;-71
2022/07/17 11:29:40;;;;;;;2.15;1.67;;;28.50;71.90;;;;;;5087347;28;20027;-71
2022/07/17 11:32:06;;;;;;;5.45;1.80;;;28.60;71.40;;;;;;5091151;28;20396;-71
2022/07/17 11:34:32;;;;;;;5.10;1.55;;;28.50;69.60;;;;;;5095945;28;20055;-72
2022/07/17 11:37:02;;;;;;;1.50;1.40;;;28.50;68.90;;;;;;5087220;28;20460;-77
2022/07/17 11:39:41;;;;;;;1.80;1.67;;;28.60;66.60;;;;;;5083625;28;20124;-72
2022/07/17 11:42:12;;;;;;;3.75;1.80;;;28.70;49.40;;;;;;5083917;28;20153;-73
2022/07/17 11:44:38;;;;;;;3.47;2.20;;;29.00;50.20;;;;;;5099938;28;20099;-72
2022/07/17 11:47:04;;;;;;;2.83;1.42;;;29.10;50.10;;;;;;5088179;28;20485;-73
2022/07/17 11:49:35;;;;;;;2.60;1.70;;;29.20;49.70;;;;;;5088370;28;20046;-72
2022/07/17 11:52:12;;;;;;;1.83;1.73;;;29.30;50.00;;;;;;5088503;28;20028;-73
2022/07/17 11:54:46;;;;;;;2.25;2.05;;;29.30;49.30;;;;;;5092264;28;20020;-73
2022/07/17 11:57:12;;;;;;;1.77;1.67;;;29.60;48.80;;;;;;5088400;28;20066;-73
2022/07/17 11:59:38;;;;;;;1.88;1.70;;;29.70;48.50;;;;;;5085532;28;20040;-74
2022/07/17 12:02:29;;;;;;;2.13;1.90;;;29.80;49.00;;;;;;5093873;28;20020;-72
2022/07/17 12:04:57;;;;;;;7.00;1.80;;;29.60;48.50;;;;;;5085095;28;20028;-75
2022/07/17 12:07:37;;;;;;;2.42;2.05;;;29.40;48.20;;;;;;5079823;28;20044;-73
2022/07/17 12:10:15;;;;;;;2.22;1.75;;;29.40;49.40;;;;;;5089909;28;20036;-74
2022/07/17 12:12:56;;;;;;;2.40;1.60;;;29.30;48.20;;;;;;5080156;28;20070;-73
2022/07/17 12:15:34;;;;;;;1.70;1.60;;;29.20;48.80;;;;;;5085917;28;20051;-73
2022/07/17 12:18:00;;;;;;;1.48;1.38;;;29.20;48.80;;;;;;5093048;28;20033;-75
2022/07/17 12:20:39;;;;;;;1.75;1.65;;;29.30;48.20;;;;;;5089205;28;20024;-83
2022/07/17 12:23:05;;;;;;;1.63;1.52;;;29.50;48.10;;;;;;5089668;28;20051;-81
2022/07/17 12:25:30;;;;;;;1.83;1.73;;;29.80;47.80;;;;;;5087783;28;20056;-80
2022/07/17 12:27:56;;;;;;;2.67;1.42;;;30.10;46.50;;;;;;5089273;28;20036;-79
2022/07/17 12:30:22;;;;;;;3.00;1.88;;;30.30;47.90;;;;;;5081910;28;20028;-81
2022/07/17 12:32:48;;;;;;;2.50;1.83;;;30.40;47.40;;;;;;5080647;28;20024;-79
2022/07/17 12:35:14;;;;;;;1.70;1.60;;;30.50;46.30;;;;;;5086970;28;20428;-75
2022/07/17 12:37:40;;;;;;;1.80;1.60;;;30.60;46.50;;;;;;5094089;28;20465;-75
2022/07/17 12:40:07;;;;;;;1.50;1.40;;;30.70;45.90;;;;;;5082618;28;20082;-75
2022/07/17 12:42:33;;;;;;;2.00;1.55;;;30.90;46.40;;;;;;5086917;28;20031;-75
2022/07/17 12:44:58;;;;;;;2.95;1.85;;;31.10;47.20;;;;;;5095030;28;20099;-75
2022/07/17 12:47:24;;;;;;;5.93;1.90;;;31.20;46.50;;;;;;5084437;28;20025;-76
2022/07/17 12:49:50;;;;;;;1.45;1.38;;;31.20;46.30;;;;;;5087571;28;20467;-76
2022/07/17 12:52:15;;;;;;;2.60;1.58;;;31.00;46.60;;;;;;5087230;28;20020;-79